sensor_id;sensor_type;location;lat;lon;timestamp;pressure;altitude;pressure_sealevel;temperature;humidity
7075;BME280;3578;51.568;6.932;2023-07-09T00:02:22;55744.09;;;-144.14;100.00
7075;BME280;3578;51.568;6.932;2023-07-09T00:04:49;55744.09;;;-144.14;100.00
7075;BME280;3578;51.568;6.932;2023-07-09T00:07:24;55742.06;;;-144.14;100.00
7075;BME280;3578;51.568;6.932;2023-07-09T00:09:54;55720.00;;;-144.14;100.00
7075;BME280;3578;51.568;6.932;2023-07-09T00:12:21;55714.00;;;-144.14;100.00
7075;BME280;3578;51.568;6.932;2023-07-09T00:14:48;55703.97;;;-144.14;100.00
7075;BME280;3578;51.568;6.932;2023-07-09T00:17:22;55687.94;;;-144.14;100.00
7075;BME280;3578;51.568;6.932;2023-07-09T00:19:50;55687.94;;;-144.14;100.00
7075;BME280;3578;51.568;6.932;2023-07-09T00:22:19;55641.81;;;-144.14;100.00
7075;BME280;3578;51.568;6.932;2023-07-09T00:24:49;55653.84;;;-144.14;100.00
7075;BME280;3578;51.568;6.932;2023-07-09T00:27:19;55631.78;;;-144.14;100.00
7075;BME280;3578;51.568;6.932;2023-07-09T00:29:47;55567.59;;;-144.14;100.00
7075;BME280;3578;51.568;6.932;2023-07-09T00:32:15;55583.63;;;-144.14;100.00
7075;BME280;3578;51.568;6.932;2023-07-09T00:34:43;55531.50;;;-144.14;100.00
7075;BME280;3578;51.568;6.932;2023-07-09T00:37:15;55495.41;;;-144.14;100.00
7075;BME280;3578;51.568;6.932;2023-07-09T00:39:44;55539.53;;;-144.14;100.00
7075;BME280;3578;51.568;6.932;2023-07-09T00:42:13;55485.38;;;-144.14;100.00
7075;BME280;3578;51.568;6.932;2023-07-09T00:44:44;55515.44;;;-144.14;100.00
7075;BME280;3578;51.568;6.932;2023-07-09T00:47:26;55467.31;;;-144.14;100.00
7075;BME280;3578;51.568;6.932;2023-07-09T00:50:10;55491.38;;;-144.14;100.00
7075;BME280;3578;51.568;6.932;2023-07-09T00:52:43;55479.34;;;-144.14;100.00
7075;BME280;3578;51.568;6.932;2023-07-09T00:55:17;55387.09;;;-144.14;100.00
7075;BME280;3578;51.568;6.932;2023-07-09T00:57:49;55397.13;;;-144.14;100.00
7075;BME280;3578;51.568;6.932;2023-07-09T01:00:25;55387.09;;;-144.14;100.00
7075;BME280;3578;51.568;6.932;2023-07-09T01:02:54;55397.13;;;-144.14;100.00
7075;BME280;3578;51.568;6.932;2023-07-09T01:05:23;55349.00;;;-144.14;100.00
7075;BME280;3578;51.568;6.932;2023-07-09T01:07:51;55469.34;;;-144.14;100.00
7075;BME280;3578;51.568;6.932;2023-07-09T01:10:20;55441.25;;;-144.14;100.00
7075;BME280;3578;51.568;6.932;2023-07-09T01:12:48;55455.28;;;-144.14;100.00
7075;BME280;3578;51.568;6.932;2023-07-09T01:15:17;55407.16;;;-144.14;100.00
7075;BME280;3578;51.568;6.932;2023-07-09T01:17:44;55393.13;;;-144.14;100.00
7075;BME280;3578;51.568;6.932;2023-07-09T01:20:16;55399.13;;;-144.14;100.00
7075;BME280;3578;51.568;6.932;2023-07-09T01:22:49;55439.25;;;-144.14;100.00
7075;BME280;3578;51.568;6.932;2023-07-09T01:25:17;55399.13;;;-144.14;100.00
7075;BME280;3578;51.568;6.932;2023-07-09T01:27:46;55361.03;;;-144.14;100.00
7075;BME280;3578;51.568;6.932;2023-07-09T01:30:29;55365.06;;;-144.14;100.00
7075;BME280;3578;51.568;6.932;2023-07-09T01:32:59;55371.06;;;-144.14;100.00
7075;BME280;3578;51.568;6.932;2023-07-09T01:35:30;55340.97;;;-144.14;100.00
7075;BME280;3578;51.568;6.932;2023-07-09T01:38:00;55353.03;;;-144.14;100.00
7075;BME280;3578;51.568;6.932;2023-07-09T01:40:29;55367.06;;;-144.14;100.00
7075;BME280;3578;51.568;6.932;2023-07-09T01:42:58;55367.06;;;-144.14;100.00
7075;BME280;3578;51.568;6.932;2023-07-09T01:45:25;55322.94;;;-144.14;100.00
7075;BME280;3578;51.568;6.932;2023-07-09T01:47:53;55343.00;;;-144.14;100.00
7075;BME280;3578;51.568;6.932;2023-07-09T01:50:21;55320.94;;;-144.14;100.00
7075;BME280;3578;51.568;6.932;2023-07-09T01:52:50;55338.97;;;-144.14;100.00
7075;BME280;3578;51.568;6.932;2023-07-09T01:55:19;55276.81;;;-144.14;100.00
7075;BME280;3578;51.568;6.932;2023-07-09T01:57:46;55316.91;;;-144.14;100.00
7075;BME280;3578;51.568;6.932;2023-07-09T02:00:16;55278.81;;;-144.14;100.00
7075;BME280;3578;51.568;6.932;2023-07-09T02:02:45;55304.88;;;-144.14;100.00
7075;BME280;3578;51.568;6.932;2023-07-09T02:05:14;55310.91;;;-144.14;100.00
7075;BME280;3578;51.568;6.932;2023-07-09T02:07:42;55270.81;;;-144.14;100.00
7075;BME280;3578;51.568;6.932;2023-07-09T02:10:11;55278.81;;;-144.14;100.00
7075;BME280;3578;51.568;6.932;2023-07-09T02:12:39;55238.72;;;-144.14;100.00
7075;BME280;3578;51.568;6.932;2023-07-09T02:15:08;55256.75;;;-144.14;100.00
7075;BME280;3578;51.568;6.932;2023-07-09T02:17:35;55230.69;;;-144.14;100.00
7075;BME280;3578;51.568;6.932;2023-07-09T02:20:03;55238.72;;;-144.14;100.00
7075;BME280;3578;51.568;6.932;2023-07-09T02:22:32;55232.69;;;-144.14;100.00
7075;BME280;3578;51.568;6.932;2023-07-09T02:24:59;55214.66;;;-144.14;100.00
7075;BME280;3578;51.568;6.932;2023-07-09T02:27:27;55218.66;;;-144.14;100.00
7075;BME280;3578;51.568;6.932;2023-07-09T02:29:55;55244.72;;;-144.14;100.00
7075;BME280;3578;51.568;6.932;2023-07-09T02:32:25;55204.63;;;-144.14;100.00
7075;BME280;3578;51.568;6.932;2023-07-09T02:34:53;55212.66;;;-144.14;100.00
7075;BME280;3578;51.568;6.932;2023-07-09T02:37:23;55216.66;;;-144.14;100.00
7075;BME280;3578;51.568;6.932;2023-07-09T02:39:51;55218.66;;;-144.14;100.00
7075;BME280;3578;51.568;6.932;2023-07-09T02:42:20;55242.72;;;-144.14;100.00
7075;BME280;3578;51.568;6.932;2023-07-09T02:44:48;55216.66;;;-144.14;100.00
7075;BME280;3578;51.568;6.932;2023-07-09T02:47:16;55180.56;;;-144.14;100.00
7075;BME280;3578;51.568;6.932;2023-07-09T02:49:44;55240.72;;;-144.14;100.00
7075;BME280;3578;51.568;6.932;2023-07-09T02:52:11;55200.63;;;-144.14;100.00
7075;BME280;3578;51.568;6.932;2023-07-09T02:54:38;55234.72;;;-144.14;100.00
7075;BME280;3578;51.568;6.932;2023-07-09T02:57:06;55194.59;;;-144.14;100.00
7075;BME280;3578;51.568;6.932;2023-07-09T02:59:33;55216.66;;;-144.14;100.00
7075;BME280;3578;51.568;6.932;2023-07-09T03:02:00;55194.59;;;-144.14;100.00
7075;BME280;3578;51.568;6.932;2023-07-09T03:04:29;55186.59;;;-144.14;100.00
7075;BME280;3578;51.568;6.932;2023-07-09T03:06:57;55138.44;;;-144.14;100.00
7075;BME280;3578;51.568;6.932;2023-07-09T03:09:25;55138.44;;;-144.14;100.00
7075;BME280;3578;51.568;6.932;2023-07-09T03:11:53;55178.56;;;-144.14;100.00
7075;BME280;3578;51.568;6.932;2023-07-09T03:14:20;55154.50;;;-144.14;100.00
7075;BME280;3578;51.568;6.932;2023-07-09T03:16:47;55156.50;;;-144.14;100.00
7075;BME280;3578;51.568;6.932;2023-07-09T03:19:14;55158.50;;;-144.14;100.00
7075;BME280;3578;51.568;6.932;2023-07-09T03:21:42;55142.47;;;-144.14;100.00
7075;BME280;3578;51.568;6.932;2023-07-09T03:24:09;55136.44;;;-144.14;100.00
7075;BME280;3578;51.568;6.932;2023-07-09T03:26:36;55148.47;;;-144.14;100.00
7075;BME280;3578;51.568;6.932;2023-07-09T03:29:03;55110.38;;;-144.14;100.00
7075;BME280;3578;51.568;6.932;2023-07-09T03:31:30;55068.28;;;-144.14;100.00
7075;BME280;3578;51.568;6.932;2023-07-09T03:34:00;55142.47;;;-144.14;100.00
7075;BME280;3578;51.568;6.932;2023-07-09T03:36:27;55134.44;;;-144.14;100.00
7075;BME280;3578;51.568;6.932;2023-07-09T03:38:56;55196.59;;;-144.14;100.00
7075;BME280;3578;51.568;6.932;2023-07-09T03:41:24;55148.47;;;-144.14;100.00
7075;BME280;3578;51.568;6.932;2023-07-09T03:43:51;55138.44;;;-144.14;100.00
7075;BME280;3578;51.568;6.932;2023-07-09T03:46:19;55114.38;;;-144.14;100.00
7075;BME280;3578;51.568;6.932;2023-07-09T03:48:46;55130.44;;;-144.14;100.00
7075;BME280;3578;51.568;6.932;2023-07-09T03:51:13;55166.53;;;-144.14;100.00
7075;BME280;3578;51.568;6.932;2023-07-09T03:53:40;55138.44;;;-144.14;100.00
7075;BME280;3578;51.568;6.932;2023-07-09T03:56:08;55176.56;;;-144.14;100.00
7075;BME280;3578;51.568;6.932;2023-07-09T03:58:36;55192.59;;;-144.14;100.00
7075;BME280;3578;51.568;6.932;2023-07-09T04:01:03;55172.53;;;-144.14;100.00
7075;BME280;3578;51.568;6.932;2023-07-09T04:03:30;55168.53;;;-144.14;100.00
7075;BME280;3578;51.568;6.932;2023-07-09T04:05:57;55172.53;;;-144.14;100.00
7075;BME280;3578;51.568;6.932;2023-07-09T04:08:24;55180.56;;;-144.14;100.00
7075;BME280;3578;51.568;6.932;2023-07-09T04:10:53;55184.56;;;-144.14;100.00
7075;BME280;3578;51.568;6.932;2023-07-09T04:13:23;55170.53;;;-144.14;100.00
7075;BME280;3578;51.568;6.932;2023-07-09T04:15:50;55186.59;;;-144.14;100.00
7075;BME280;3578;51.568;6.932;2023-07-09T04:18:17;55210.63;;;-144.14;100.00
7075;BME280;3578;51.568;6.932;2023-07-09T04:20:48;55240.72;;;-144.14;100.00
7075;BME280;3578;51.568;6.932;2023-07-09T04:23:15;55214.66;;;-144.14;100.00
7075;BME280;3578;51.568;6.932;2023-07-09T04:25:42;55240.72;;;-144.14;100.00
7075;BME280;3578;51.568;6.932;2023-07-09T04:28:09;55230.69;;;-144.14;100.00
7075;BME280;3578;51.568;6.932;2023-07-09T04:30:38;55256.75;;;-144.14;100.00
7075;BME280;3578;51.568;6.932;2023-07-09T04:33:05;55266.78;;;-144.14;100.00
7075;BME280;3578;51.568;6.932;2023-07-09T04:35:32;55292.84;;;-144.14;100.00
7075;BME280;3578;51.568;6.932;2023-07-09T04:37:59;55314.91;;;-144.14;100.00
7075;BME280;3578;51.568;6.932;2023-07-09T04:40:26;55296.88;;;-144.14;100.00
7075;BME280;3578;51.568;6.932;2023-07-09T04:42:53;55343.00;;;-144.14;100.00
7075;BME280;3578;51.568;6.932;2023-07-09T04:45:20;55375.06;;;-144.14;100.00
7075;BME280;3578;51.568;6.932;2023-07-09T04:47:48;55399.13;;;-144.14;100.00
7075;BME280;3578;51.568;6.932;2023-07-09T04:50:15;55413.19;;;-144.14;100.00
7075;BME280;3578;51.568;6.932;2023-07-09T04:52:42;55427.22;;;-144.14;100.00
7075;BME280;3578;51.568;6.932;2023-07-09T04:55:09;55475.34;;;-144.14;100.00
7075;BME280;3578;51.568;6.932;2023-07-09T04:57:36;55459.31;;;-144.14;100.00
7075;BME280;3578;51.568;6.932;2023-07-09T05:00:05;55503.41;;;-144.14;100.00
7075;BME280;3578;51.568;6.932;2023-07-09T05:02:33;55511.44;;;-144.14;100.00
7075;BME280;3578;51.568;6.932;2023-07-09T05:05:01;55555.56;;;-144.14;100.00
7075;BME280;3578;51.568;6.932;2023-07-09T05:07:28;55589.66;;;-144.14;100.00
7075;BME280;3578;51.568;6.932;2023-07-09T05:09:57;55573.63;;;-144.14;100.00
7075;BME280;3578;51.568;6.932;2023-07-09T05:12:26;55633.78;;;-144.14;100.00
7075;BME280;3578;51.568;6.932;2023-07-09T05:14:55;55609.72;;;-144.14;100.00
7075;BME280;3578;51.568;6.932;2023-07-09T05:17:22;55597.69;;;-144.14;100.00
7075;BME280;3578;51.568;6.932;2023-07-09T05:19:50;55683.91;;;-144.14;100.00
7075;BME280;3578;51.568;6.932;2023-07-09T05:22:19;55720.00;;;-144.14;100.00
7075;BME280;3578;51.568;6.932;2023-07-09T05:24:46;55728.03;;;-144.14;100.00
7075;BME280;3578;51.568;6.932;2023-07-09T05:27:13;55788.19;;;-144.14;100.00
7075;BME280;3578;51.568;6.932;2023-07-09T05:29:40;55800.25;;;-144.14;100.00
7075;BME280;3578;51.568;6.932;2023-07-09T05:32:07;55872.44;;;-144.14;100.00
7075;BME280;3578;51.568;6.932;2023-07-09T05:34:34;55814.28;;;-144.14;100.00
7075;BME280;3578;51.568;6.932;2023-07-09T05:37:01;55892.50;;;-144.14;100.00
7075;BME280;3578;51.568;6.932;2023-07-09T05:39:29;55924.59;;;-144.14;100.00
7075;BME280;3578;51.568;6.932;2023-07-09T05:41:56;55944.66;;;-144.14;100.00
7075;BME280;3578;51.568;6.932;2023-07-09T05:44:23;55962.69;;;-144.14;100.00
7075;BME280;3578;51.568;6.932;2023-07-09T05:46:50;56046.94;;;-144.14;100.00
7075;BME280;3578;51.568;6.932;2023-07-09T05:49:18;56069.00;;;-144.14;100.00
7075;BME280;3578;51.568;6.932;2023-07-09T05:51:45;56129.16;;;-144.14;100.00
7075;BME280;3578;51.568;6.932;2023-07-09T05:54:12;56153.25;;;-144.14;100.00
7075;BME280;3578;51.568;6.932;2023-07-09T05:56:40;56185.34;;;-144.14;100.00
7075;BME280;3578;51.568;6.932;2023-07-09T05:59:07;56201.38;;;-144.14;100.00
7075;BME280;3578;51.568;6.932;2023-07-09T06:01:35;56249.53;;;-144.14;99.88
7075;BME280;3578;51.568;6.932;2023-07-09T06:04:03;56301.69;;;-144.14;99.74
7075;BME280;3578;51.568;6.932;2023-07-09T06:06:30;56319.72;;;-144.14;99.65
7075;BME280;3578;51.568;6.932;2023-07-09T06:08:57;56399.97;;;-144.14;99.25
7075;BME280;3578;51.568;6.932;2023-07-09T06:11:24;56466.16;;;-144.14;98.80
7075;BME280;3578;51.568;6.932;2023-07-09T06:13:52;56478.19;;;-144.14;98.40
7075;BME280;3578;51.568;6.932;2023-07-09T06:16:20;56514.31;;;-144.14;98.10
7075;BME280;3578;51.568;6.932;2023-07-09T06:18:47;56600.56;;;-144.14;97.40
7075;BME280;3578;51.568;6.932;2023-07-09T06:21:14;56714.91;;;-144.14;96.55
7075;BME280;3578;51.568;6.932;2023-07-09T06:23:41;56779.13;;;-144.14;95.97
7075;BME280;3578;51.568;6.932;2023-07-09T06:26:08;56823.25;;;-144.14;95.71
7075;BME280;3578;51.568;6.932;2023-07-09T06:28:35;56871.41;;;-144.14;95.00
7075;BME280;3578;51.568;6.932;2023-07-09T06:31:03;56945.63;;;-144.14;94.09
7075;BME280;3578;51.568;6.932;2023-07-09T06:33:30;56957.66;;;-144.14;93.82
7075;BME280;3578;51.568;6.932;2023-07-09T06:36:00;57098.09;;;-144.14;93.55
7075;BME280;3578;51.568;6.932;2023-07-09T06:38:28;57092.09;;;-144.14;92.88
7075;BME280;3578;51.568;6.932;2023-07-09T06:40:56;57162.31;;;-144.14;92.25
7075;BME280;3578;51.568;6.932;2023-07-09T06:43:23;57256.63;;;-144.14;92.13
7075;BME280;3578;51.568;6.932;2023-07-09T06:45:53;57288.72;;;-144.14;92.13
7075;BME280;3578;51.568;6.932;2023-07-09T06:48:23;57332.88;;;-144.14;92.85
7075;BME280;3578;51.568;6.932;2023-07-09T06:50:52;57421.16;;;-144.14;92.84
7075;BME280;3578;51.568;6.932;2023-07-09T06:53:19;57543.56;;;-144.14;92.33
7075;BME280;3578;51.568;6.932;2023-07-09T06:55:46;57615.78;;;-144.14;91.98
7075;BME280;3578;51.568;6.932;2023-07-09T06:58:16;57657.94;;;-144.14;91.71
7075;BME280;3578;51.568;6.932;2023-07-09T07:00:43;57796.41;;;-144.14;91.76
7075;BME280;3578;51.568;6.932;2023-07-09T07:03:10;58063.31;;;-144.14;90.59
7075;BME280;3578;51.568;6.932;2023-07-09T07:05:43;58203.81;;;-144.14;90.08
7075;BME280;3578;51.568;6.932;2023-07-09T07:08:13;58468.75;;;-144.14;87.58
7075;BME280;3578;51.568;6.932;2023-07-09T07:10:40;58775.84;;;-144.14;84.98
7075;BME280;3578;51.568;6.932;2023-07-09T07:13:07;59010.72;;;-144.14;83.15
7075;BME280;3578;51.568;6.932;2023-07-09T07:15:37;58922.38;;;-144.14;83.38
7075;BME280;3578;51.568;6.932;2023-07-09T07:18:04;58958.53;;;-144.14;83.91
7075;BME280;3578;51.568;6.932;2023-07-09T07:20:31;59271.72;;;-144.14;82.58
7075;BME280;3578;51.568;6.932;2023-07-09T07:23:00;59374.09;;;-144.14;79.55
7075;BME280;3578;51.568;6.932;2023-07-09T07:25:27;59392.16;;;-144.14;79.18
7075;BME280;3578;51.568;6.932;2023-07-09T07:27:56;59362.06;;;-144.14;78.75
7075;BME280;3578;51.568;6.932;2023-07-09T07:30:23;59416.25;;;-144.14;78.63
7075;BME280;3578;51.568;6.932;2023-07-09T07:32:50;59452.41;;;-144.14;77.88
7075;BME280;3578;51.568;6.932;2023-07-09T07:35:17;59522.66;;;-144.14;77.66
7075;BME280;3578;51.568;6.932;2023-07-09T07:37:45;59496.56;;;-144.14;81.35
7075;BME280;3578;51.568;6.932;2023-07-09T07:40:13;59550.78;;;-144.14;81.17
7075;BME280;3578;51.568;6.932;2023-07-09T07:42:40;59504.59;;;-144.14;80.11
7075;BME280;3578;51.568;6.932;2023-07-09T07:45:08;59550.78;;;-144.14;79.97
7075;BME280;3578;51.568;6.932;2023-07-09T07:47:36;59576.88;;;-144.14;79.93
7075;BME280;3578;51.568;6.932;2023-07-09T07:50:06;59653.19;;;-144.14;79.19
7075;BME280;3578;51.568;6.932;2023-07-09T07:52:34;59713.41;;;-144.14;79.52
7075;BME280;3578;51.568;6.932;2023-07-09T07:55:04;59777.66;;;-144.14;79.91
7075;BME280;3578;51.568;6.932;2023-07-09T07:57:33;59805.78;;;-144.14;80.26
7075;BME280;3578;51.568;6.932;2023-07-09T08:00:00;59878.06;;;-144.14;79.30
7075;BME280;3578;51.568;6.932;2023-07-09T08:02:27;59904.19;;;-144.14;76.20
7075;BME280;3578;51.568;6.932;2023-07-09T08:04:54;59924.25;;;-144.14;74.69
7075;BME280;3578;51.568;6.932;2023-07-09T08:07:21;59984.50;;;-144.14;69.42
7075;BME280;3578;51.568;6.932;2023-07-09T08:09:49;60054.78;;;-144.14;67.29
7075;BME280;3578;51.568;6.932;2023-07-09T08:12:16;60137.13;;;-144.14;71.43
7075;BME280;3578;51.568;6.932;2023-07-09T08:14:45;60191.34;;;-144.14;70.10
7075;BME280;3578;51.568;6.932;2023-07-09T08:17:12;60261.63;;;-144.14;70.01
7075;BME280;3578;51.568;6.932;2023-07-09T08:19:47;60347.97;;;-144.14;66.34
7075;BME280;3578;51.568;6.932;2023-07-09T08:22:16;60428.31;;;-144.14;61.09
7075;BME280;3578;51.568;6.932;2023-07-09T08:24:43;60502.63;;;-144.14;64.00
7075;BME280;3578;51.568;6.932;2023-07-09T08:27:10;60534.75;;;-144.14;60.00
7075;BME280;3578;51.568;6.932;2023-07-09T08:29:37;60629.16;;;-144.14;59.13
7075;BME280;3578;51.568;6.932;2023-07-09T08:32:08;60665.31;;;-144.14;63.67
7075;BME280;3578;51.568;6.932;2023-07-09T08:34:37;60685.38;;;-144.14;68.92
7075;BME280;3578;51.568;6.932;2023-07-09T08:37:05;60807.91;;;-144.14;76.42
7075;BME280;3578;51.568;6.932;2023-07-09T08:39:32;60769.75;;;-144.14;76.39
7075;BME280;3578;51.568;6.932;2023-07-09T08:42:04;60757.69;;;-144.14;71.13
7075;BME280;3578;51.568;6.932;2023-07-09T08:45:01;60797.88;;;-144.14;66.53
7075;BME280;3578;51.568;6.932;2023-07-09T08:47:43;60896.28;;;-144.14;63.46
7075;BME280;3578;51.568;6.932;2023-07-09T08:50:17;61028.84;;;-144.14;60.33
7075;BME280;3578;51.568;6.932;2023-07-09T08:52:48;61008.78;;;-144.14;59.26
7075;BME280;3578;51.568;6.932;2023-07-09T08:55:19;61151.38;;;-144.14;69.83
7075;BME280;3578;51.568;6.932;2023-07-09T08:57:48;61151.38;;;-144.14;67.19
7075;BME280;3578;51.568;6.932;2023-07-09T09:00:26;61283.97;;;-144.14;62.07
7075;BME280;3578;51.568;6.932;2023-07-09T09:02:59;61283.97;;;-144.14;58.87
7075;BME280;3578;51.568;6.932;2023-07-09T09:05:27;61356.28;;;-144.14;52.87
7075;BME280;3578;51.568;6.932;2023-07-09T09:07:58;61450.72;;;-144.14;51.20
7075;BME280;3578;51.568;6.932;2023-07-09T09:10:33;61464.78;;;-144.14;50.65
7075;BME280;3578;51.568;6.932;2023-07-09T09:13:09;61563.22;;;-144.14;52.94
7075;BME280;3578;51.568;6.932;2023-07-09T09:15:40;61504.94;;;-144.14;54.24
7075;BME280;3578;51.568;6.932;2023-07-09T09:18:22;61462.75;;;-144.14;48.79
7075;BME280;3578;51.568;6.932;2023-07-09T09:20:55;61502.94;;;-144.14;48.46
7075;BME280;3578;51.568;6.932;2023-07-09T09:23:30;61523.03;;;-144.14;49.33
7075;BME280;3578;51.568;6.932;2023-07-09T09:26:09;61575.25;;;-144.14;51.71
7075;BME280;3578;51.568;6.932;2023-07-09T09:28:40;61585.31;;;-144.14;50.47
7075;BME280;3578;51.568;6.932;2023-07-09T09:31:09;61629.50;;;-144.14;50.97
7075;BME280;3578;51.568;6.932;2023-07-09T09:33:41;61611.44;;;-144.14;55.33
7075;BME280;3578;51.568;6.932;2023-07-09T09:36:16;61750.06;;;-144.14;52.40
7075;BME280;3578;51.568;6.932;2023-07-09T09:38:43;61689.78;;;-144.14;46.52
7075;BME280;3578;51.568;6.932;2023-07-09T09:41:15;61834.44;;;-144.14;52.94
7075;BME280;3578;51.568;6.932;2023-07-09T09:43:44;61782.19;;;-144.14;55.12
7075;BME280;3578;51.568;6.932;2023-07-09T09:46:23;61647.59;;;-144.14;48.43
7075;BME280;3578;51.568;6.932;2023-07-09T09:48:55;61920.84;;;-144.14;47.16
7075;BME280;3578;51.568;6.932;2023-07-09T09:51:24;62029.34;;;-144.14;43.59
7075;BME280;3578;51.568;6.932;2023-07-09T09:53:56;62131.81;;;-144.14;46.14
7075;BME280;3578;51.568;6.932;2023-07-09T09:56:28;62079.56;;;-144.14;46.33
7075;BME280;3578;51.568;6.932;2023-07-09T09:58:57;62174.00;;;-144.14;55.67
7075;BME280;3578;51.568;6.932;2023-07-09T10:01:28;62200.13;;;-144.14;59.74
7075;BME280;3578;51.568;6.932;2023-07-09T10:03:59;61920.84;;;-144.14;53.65
7075;BME280;3578;51.568;6.932;2023-07-09T10:06:36;61882.66;;;-144.14;47.60
7075;BME280;3578;51.568;6.932;2023-07-09T10:09:14;61820.38;;;-144.14;44.90
7075;BME280;3578;51.568;6.932;2023-07-09T10:11:47;62129.81;;;-144.14;56.60
7075;BME280;3578;51.568;6.932;2023-07-09T10:14:33;62095.63;;;-144.14;47.68
7075;BME280;3578;51.568;6.932;2023-07-09T10:17:08;62212.19;;;-144.14;46.97
7075;BME280;3578;51.568;6.932;2023-07-09T10:19:48;62234.28;;;-144.14;45.13
7075;BME280;3578;51.568;6.932;2023-07-09T10:22:29;62328.72;;;-144.14;47.44
7075;BME280;3578;51.568;6.932;2023-07-09T10:25:07;62356.88;;;-144.14;44.96
7075;BME280;3578;51.568;6.932;2023-07-09T10:27:53;62320.69;;;-144.14;42.71
7075;BME280;3578;51.568;6.932;2023-07-09T10:30:41;62569.88;;;-144.14;50.50
7075;BME280;3578;51.568;6.932;2023-07-09T10:33:12;62517.63;;;-144.14;44.42
7075;BME280;3578;51.568;6.932;2023-07-09T10:35:51;62529.69;;;-144.14;42.18
7075;BME280;3578;51.568;6.932;2023-07-09T10:38:36;62393.03;;;-144.14;40.84
7075;BME280;3578;51.568;6.932;2023-07-09T10:41:11;62531.69;;;-144.14;40.20
7075;BME280;3578;51.568;6.932;2023-07-09T10:43:44;62517.63;;;-144.14;39.51
7075;BME280;3578;51.568;6.932;2023-07-09T10:46:16;62658.28;;;-144.14;39.34
7075;BME280;3578;51.568;6.932;2023-07-09T10:48:47;62708.53;;;-144.14;42.46
7075;BME280;3578;51.568;6.932;2023-07-09T10:51:28;62867.31;;;-144.14;42.01
7075;BME280;3578;51.568;6.932;2023-07-09T10:54:00;62967.78;;;-144.14;41.08
7075;BME280;3578;51.568;6.932;2023-07-09T10:56:34;62979.84;;;-144.14;39.63
7075;BME280;3578;51.568;6.932;2023-07-09T10:59:14;62997.94;;;-144.14;38.98
7075;BME280;3578;51.568;6.932;2023-07-09T11:01:49;62937.66;;;-144.14;36.95
7075;BME280;3578;51.568;6.932;2023-07-09T11:04:28;63098.44;;;-144.14;39.25
7075;BME280;3578;51.568;6.932;2023-07-09T11:07:01;63100.44;;;-144.14;38.08
7075;BME280;3578;51.568;6.932;2023-07-09T11:09:32;63108.50;;;-144.14;37.84
7075;BME280;3578;51.568;6.932;2023-07-09T11:12:04;63168.78;;;-144.14;37.71
7075;BME280;3578;51.568;6.932;2023-07-09T11:14:37;63213.00;;;-144.14;39.02
7075;BME280;3578;51.568;6.932;2023-07-09T11:17:08;63180.84;;;-144.14;40.44
7075;BME280;3578;51.568;6.932;2023-07-09T11:19:42;63112.50;;;-144.14;37.71
7075;BME280;3578;51.568;6.932;2023-07-09T11:22:20;62971.81;;;-144.14;35.50
7075;BME280;3578;51.568;6.932;2023-07-09T11:24:49;62993.94;;;-144.14;35.75
7075;BME280;3578;51.568;6.932;2023-07-09T11:27:20;62979.84;;;-144.14;35.18
7075;BME280;3578;51.568;6.932;2023-07-09T11:29:58;62887.41;;;-144.14;34.41
7075;BME280;3578;51.568;6.932;2023-07-09T11:32:27;62780.88;;;-144.14;35.21
7075;BME280;3578;51.568;6.932;2023-07-09T11:34:54;62809.03;;;-144.14;35.94
7075;BME280;3578;51.568;6.932;2023-07-09T11:37:44;62887.41;;;-144.14;36.42
7075;BME280;3578;51.568;6.932;2023-07-09T11:40:13;62770.84;;;-144.14;35.23
7075;BME280;3578;51.568;6.932;2023-07-09T11:42:51;63003.97;;;-144.14;36.60
7075;BME280;3578;51.568;6.932;2023-07-09T11:45:24;63090.41;;;-144.14;35.16
7075;BME280;3578;51.568;6.932;2023-07-09T11:47:58;63329.59;;;-144.14;36.30
7075;BME280;3578;51.568;6.932;2023-07-09T11:50:34;63321.53;;;-144.14;35.55
7075;BME280;3578;51.568;6.932;2023-07-09T11:53:24;63335.63;;;-144.14;38.14
7075;BME280;3578;51.568;6.932;2023-07-09T11:55:55;63321.53;;;-144.14;36.75
7075;BME280;3578;51.568;6.932;2023-07-09T11:58:22;63339.63;;;-144.14;35.76
7075;BME280;3578;51.568;6.932;2023-07-09T12:00:50;63371.81;;;-144.14;36.08
7075;BME280;3578;51.568;6.932;2023-07-09T12:03:22;63484.38;;;-144.14;36.12
7075;BME280;3578;51.568;6.932;2023-07-09T12:05:53;63554.72;;;-144.14;35.18
7075;BME280;3578;51.568;6.932;2023-07-09T12:08:28;63538.63;;;-144.14;34.47
7075;BME280;3578;51.568;6.932;2023-07-09T12:10:57;63695.44;;;-144.14;35.14
7075;BME280;3578;51.568;6.932;2023-07-09T12:13:24;63627.09;;;-144.14;33.49
7075;BME280;3578;51.568;6.932;2023-07-09T12:15:52;63405.97;;;-144.14;34.16
7075;BME280;3578;51.568;6.932;2023-07-09T12:18:19;63261.25;;;-144.14;36.04
7075;BME280;3578;51.568;6.932;2023-07-09T12:20:49;63313.50;;;-144.14;37.04
7075;BME280;3578;51.568;6.932;2023-07-09T12:23:23;63237.13;;;-144.14;36.83
7075;BME280;3578;51.568;6.932;2023-07-09T12:25:52;63267.28;;;-144.14;35.68
7075;BME280;3578;51.568;6.932;2023-07-09T12:28:21;63436.13;;;-144.14;37.78
7075;BME280;3578;51.568;6.932;2023-07-09T12:30:51;63305.47;;;-144.14;36.10
7075;BME280;3578;51.568;6.932;2023-07-09T12:33:20;63416.03;;;-144.14;36.33
7075;BME280;3578;51.568;6.932;2023-07-09T12:35:53;63506.47;;;-144.14;36.24
7075;BME280;3578;51.568;6.932;2023-07-09T12:38:27;63584.88;;;-144.14;35.39
7075;BME280;3578;51.568;6.932;2023-07-09T12:40:56;63661.25;;;-144.14;34.41
7075;BME280;3578;51.568;6.932;2023-07-09T12:43:31;63779.88;;;-144.14;34.43
7075;BME280;3578;51.568;6.932;2023-07-09T12:45:59;64005.03;;;-144.14;36.13
7075;BME280;3578;51.568;6.932;2023-07-09T12:48:28;64079.41;;;-144.14;35.48
7075;BME280;3578;51.568;6.932;2023-07-09T12:50:58;64053.28;;;-144.14;33.94
7075;BME280;3578;51.568;6.932;2023-07-09T12:53:29;64395.09;;;-144.14;35.65
7075;BME280;3578;51.568;6.932;2023-07-09T12:55:58;64495.63;;;-144.14;35.73
7075;BME280;3578;51.568;6.932;2023-07-09T12:58:29;64471.50;;;-144.14;35.61
7075;BME280;3578;51.568;6.932;2023-07-09T13:00:59;64383.03;;;-144.14;33.86
7075;BME280;3578;51.568;6.932;2023-07-09T13:03:29;64407.16;;;-144.14;34.39
7075;BME280;3578;51.568;6.932;2023-07-09T13:05:58;64397.09;;;-144.14;35.18
7075;BME280;3578;51.568;6.932;2023-07-09T13:08:30;64338.78;;;-144.14;35.06
7075;BME280;3578;51.568;6.932;2023-07-09T13:10:58;64441.31;;;-144.14;37.17